createdAt,value
2023-03-16T00:01:09.172Z,4.80
2023-03-16T00:03:37.792Z,4.17
2023-03-16T00:06:07.606Z,4.57
2023-03-16T00:08:36.917Z,4.40
2023-03-16T00:11:05.124Z,4.50
2023-03-16T00:13:33.372Z,4.80
2023-03-16T00:16:02.927Z,4.57
2023-03-16T00:18:31.244Z,4.37
2023-03-16T00:21:02.104Z,4.73
2023-03-16T00:23:35.469Z,4.33
2023-03-16T00:26:04.271Z,4.70
2023-03-16T00:28:35.318Z,4.43
2023-03-16T00:31:03.941Z,4.27
2023-03-16T00:33:34.736Z,4.60
2023-03-16T00:36:08.087Z,4.60
2023-03-16T00:38:38.607Z,4.97
2023-03-16T00:41:07.564Z,4.77
2023-03-16T00:43:40.692Z,4.70
2023-03-16T00:46:09.523Z,4.97
2023-03-16T00:48:38.147Z,4.83
2023-03-16T00:51:07.254Z,4.53
2023-03-16T00:53:36.074Z,4.60
2023-03-16T00:56:06.146Z,4.77
2023-03-16T00:58:35.796Z,4.73
2023-03-16T01:01:04.168Z,4.90
2023-03-16T01:03:32.334Z,5.07
2023-03-16T01:06:00.776Z,4.90
2023-03-16T01:08:29.221Z,4.77
2023-03-16T01:10:57.505Z,4.93
2023-03-16T01:13:27.094Z,5.20
2023-03-16T01:15:55.268Z,5.17
2023-03-16T01:18:23.565Z,4.90
2023-03-16T01:20:51.753Z,5.27
2023-03-16T01:23:20.035Z,5.30
2023-03-16T01:25:52.911Z,5.40
2023-03-16T01:28:23.588Z,5.40
2023-03-16T01:30:54.273Z,5.50
2023-03-16T01:33:23.251Z,5.43
2023-03-16T01:35:55.110Z,5.33
2023-03-16T01:38:23.568Z,4.97
2023-03-16T01:40:51.885Z,5.20
2023-03-16T01:43:20.436Z,5.13
2023-03-16T01:46:14.398Z,5.10
2023-03-16T01:48:44.970Z,5.03
2023-03-16T01:51:14.779Z,5.10
2023-03-16T01:53:45.756Z,5.83
2023-03-16T01:56:15.592Z,5.63
2023-03-16T01:58:44.830Z,5.23
2023-03-16T02:01:14.910Z,5.00
2023-03-16T02:03:44.621Z,5.90
2023-03-16T02:06:14.533Z,5.70
2023-03-16T02:08:45.294Z,5.80
2023-03-16T02:11:17.993Z,5.60
2023-03-16T02:13:46.724Z,5.60
2023-03-16T02:16:19.466Z,5.43
2023-03-16T02:18:48.283Z,5.90
2023-03-16T02:21:19.394Z,5.57
2023-03-16T02:23:47.934Z,5.43
2023-03-16T02:26:19.943Z,6.30
2023-03-16T02:28:51.675Z,5.50
2023-03-16T02:31:22.169Z,5.37
2023-03-16T02:33:52.038Z,6.00
2023-03-16T02:36:21.115Z,6.23
2023-03-16T02:38:49.256Z,5.37
2023-03-16T02:41:18.507Z,5.63
2023-03-16T02:43:49.664Z,5.23
2023-03-16T02:46:18.860Z,5.47
2023-03-16T02:48:51.244Z,5.80
2023-03-16T02:51:19.398Z,5.27
2023-03-16T02:53:47.644Z,5.57
2023-03-16T02:56:15.774Z,5.27
2023-03-16T02:58:43.950Z,6.00
2023-03-16T03:01:12.088Z,5.63
2023-03-16T03:03:40.255Z,5.73
2023-03-16T03:06:09.869Z,5.50
2023-03-16T03:08:38.230Z,5.13
2023-03-16T03:11:06.538Z,5.13
2023-03-16T03:13:34.878Z,5.60
2023-03-16T03:16:03.108Z,5.57
2023-03-16T03:18:31.311Z,5.20
2023-03-16T03:20:59.459Z,5.70
2023-03-16T03:23:28.973Z,5.37
2023-03-16T03:25:59.171Z,5.30
2023-03-16T03:28:27.426Z,5.53
2023-03-16T03:30:55.625Z,5.60
2023-03-16T03:33:23.778Z,4.97
2023-03-16T03:35:55.730Z,5.37
2023-03-16T03:38:23.889Z,5.67
2023-03-16T03:40:54.086Z,5.93
2023-03-16T03:43:22.276Z,5.70
2023-03-16T03:45:51.181Z,5.57
2023-03-16T03:48:19.404Z,5.70
2023-03-16T03:50:48.117Z,5.20
2023-03-16T03:53:16.266Z,5.37
2023-03-16T03:55:44.458Z,5.23
2023-03-16T03:58:14.037Z,4.87
2023-03-16T04:00:42.254Z,5.03
2023-03-16T04:03:10.571Z,5.57
2023-03-16T04:05:38.857Z,5.03
2023-03-16T04:08:07.339Z,5.40
2023-03-16T04:10:35.592Z,5.07
2023-03-16T04:13:03.724Z,5.30
2023-03-16T04:15:33.830Z,5.23
2023-03-16T04:18:01.986Z,5.03
2023-03-16T04:20:30.326Z,5.00
2023-03-16T04:22:59.237Z,5.00
2023-03-16T04:25:27.931Z,5.17
2023-03-16T04:27:56.518Z,5.23
2023-03-16T04:30:24.797Z,4.80
2023-03-16T04:32:54.340Z,4.93
2023-03-16T04:35:22.751Z,4.83
2023-03-16T04:37:51.011Z,5.20
2023-03-16T04:40:20.885Z,4.77
2023-03-16T04:42:49.612Z,5.17
2023-03-16T04:45:18.639Z,4.70
2023-03-16T04:47:46.848Z,5.43
2023-03-16T04:50:16.329Z,4.87
2023-03-16T04:52:44.554Z,4.40
2023-03-16T04:55:13.067Z,4.87
2023-03-16T04:57:41.299Z,4.60
2023-03-16T05:00:11.868Z,4.50
2023-03-16T05:02:40.214Z,4.33
2023-03-16T05:05:08.646Z,4.30
2023-03-16T05:07:38.277Z,4.33
2023-03-16T05:10:06.686Z,4.07
2023-03-16T05:12:34.889Z,4.43
2023-03-16T05:15:03.189Z,4.20
2023-03-16T05:17:31.436Z,4.33
2023-03-16T05:19:59.688Z,3.97
2023-03-16T05:22:28.252Z,3.50
2023-03-16T05:24:57.787Z,3.53
2023-03-16T05:27:25.985Z,3.50
2023-03-16T05:29:54.204Z,3.17
2023-03-16T05:32:22.332Z,3.30
2023-03-16T05:34:53.119Z,3.53
2023-03-16T05:37:21.400Z,3.37
2023-03-16T05:39:49.673Z,3.20
2023-03-16T05:42:19.837Z,3.53
2023-03-16T05:44:48.379Z,2.87
2023-03-16T05:47:16.656Z,3.00
2023-03-16T05:49:44.838Z,3.20
2023-03-16T05:52:13.816Z,3.17
2023-03-16T05:54:42.990Z,3.20
2023-03-16T05:57:11.208Z,3.17
2023-03-16T05:59:41.020Z,3.30
2023-03-16T06:02:10.837Z,3.30
2023-03-16T06:04:39.016Z,3.00
2023-03-16T06:07:07.362Z,3.37
2023-03-16T06:09:35.628Z,3.00
2023-03-16T06:12:04.035Z,3.00
2023-03-16T06:14:32.238Z,2.80
2023-03-16T06:17:01.812Z,3.07
2023-03-16T06:19:30.115Z,2.80
2023-03-16T06:21:58.349Z,3.00
2023-03-16T06:24:26.540Z,3.10
2023-03-16T06:26:54.715Z,2.50
2023-03-16T06:29:22.946Z,2.63
2023-03-16T06:31:52.552Z,2.97
2023-03-16T06:34:22.554Z,2.70
2023-03-16T06:36:51.380Z,2.93
2023-03-16T06:39:19.620Z,2.97
2023-03-16T06:41:47.843Z,3.10
2023-03-16T06:44:16.052Z,2.80
2023-03-16T06:46:44.221Z,3.20
2023-03-16T06:49:12.454Z,3.00
2023-03-16T06:51:42.661Z,2.90
2023-03-16T06:54:11.699Z,3.40
2023-03-16T06:56:39.949Z,3.20
2023-03-16T06:59:08.440Z,2.90
2023-03-16T07:01:36.769Z,3.17
2023-03-16T07:04:04.978Z,2.47
2023-03-16T07:06:33.302Z,2.93
2023-03-16T07:09:03.928Z,3.13
2023-03-16T07:11:32.360Z,3.20
2023-03-16T07:14:01.501Z,2.93
2023-03-16T07:16:29.886Z,3.27
2023-03-16T07:18:58.195Z,2.60
2023-03-16T07:21:26.402Z,2.30
2023-03-16T07:23:55.781Z,2.53
2023-03-16T07:26:25.365Z,2.70
2023-03-16T07:28:53.626Z,2.73
2023-03-16T07:31:21.851Z,2.30
2023-03-16T07:33:50.006Z,2.60
2023-03-16T07:36:18.349Z,2.50
2023-03-16T07:38:46.642Z,2.17
2023-03-16T07:41:15.003Z,2.13
2023-03-16T07:43:45.178Z,2.47
2023-03-16T07:46:13.783Z,2.60
2023-03-16T07:48:42.629Z,2.40
2023-03-16T07:51:10.868Z,2.60
2023-03-16T07:53:39.172Z,2.67
2023-03-16T07:56:07.944Z,2.30
2023-03-16T07:58:36.082Z,2.67
2023-03-16T08:01:05.638Z,2.37
2023-03-16T08:03:33.967Z,2.67
2023-03-16T08:06:02.219Z,2.47
2023-03-16T08:08:30.336Z,2.40
2023-03-16T08:10:58.486Z,2.77
2023-03-16T08:13:27.263Z,2.60
2023-03-16T08:15:58.815Z,2.53
2023-03-16T08:18:29.825Z,2.57
2023-03-16T08:20:58.610Z,2.57
2023-03-16T08:23:27.717Z,2.40
2023-03-16T08:25:56.660Z,2.30
2023-03-16T08:28:25.929Z,2.50
2023-03-16T08:30:55.471Z,2.40
2023-03-16T08:33:23.822Z,2.30
2023-03-16T08:35:53.433Z,2.13
2023-03-16T08:38:21.706Z,2.40
2023-03-16T08:40:52.298Z,2.53
2023-03-16T08:43:21.379Z,2.07
2023-03-16T08:45:50.777Z,2.10
2023-03-16T08:48:20.156Z,2.47
2023-03-16T08:50:48.367Z,2.37
2023-03-16T08:53:18.786Z,2.30
2023-03-16T08:55:46.971Z,2.80
2023-03-16T08:58:15.271Z,2.60
2023-03-16T09:00:46.105Z,2.30
2023-03-16T09:03:15.457Z,2.17
2023-03-16T09:05:43.713Z,2.13
2023-03-16T09:08:12.652Z,2.07
2023-03-16T09:10:42.470Z,2.10
2023-03-16T09:13:10.694Z,2.20
2023-03-16T09:15:39.102Z,2.33
2023-03-16T09:18:07.383Z,2.30
2023-03-16T09:20:35.837Z,2.13
2023-03-16T09:23:04.743Z,2.10
2023-03-16T09:25:33.597Z,2.60
2023-03-16T09:28:03.203Z,2.50
2023-03-16T09:30:31.868Z,2.23
2023-03-16T09:33:00.313Z,2.17
2023-03-16T09:35:28.805Z,2.40
2023-03-16T09:38:06.355Z,2.10
2023-03-16T09:40:35.850Z,2.00
2023-03-16T09:43:10.906Z,2.30
2023-03-16T09:45:42.916Z,2.10
2023-03-16T09:48:12.203Z,2.10
2023-03-16T09:50:48.919Z,1.87
2023-03-16T09:53:24.767Z,2.47
2023-03-16T09:55:55.218Z,2.20
2023-03-16T09:58:24.817Z,2.20
2023-03-16T10:00:59.295Z,1.90
2023-03-16T10:03:33.078Z,2.60
2023-03-16T10:06:02.110Z,2.00
2023-03-16T10:08:32.819Z,1.73
2023-03-16T10:11:07.620Z,1.80
2023-03-16T10:13:41.241Z,2.20
2023-03-16T10:16:12.964Z,2.07
2023-03-16T10:18:43.713Z,2.00
2023-03-16T10:21:14.131Z,1.70
2023-03-16T10:23:43.486Z,2.00
2023-03-16T10:26:14.569Z,2.30
2023-03-16T10:28:45.554Z,1.90
2023-03-16T10:31:14.703Z,1.93
2023-03-16T10:33:42.910Z,2.27
2023-03-16T10:36:26.317Z,2.03
2023-03-16T10:38:55.297Z,2.03
2023-03-16T10:41:26.649Z,2.00
2023-03-16T10:43:58.179Z,1.90
2023-03-16T10:46:27.681Z,1.70
2023-03-16T10:49:00.008Z,1.70
2023-03-16T10:51:29.565Z,1.67
2023-03-16T10:53:59.743Z,1.50
2023-03-16T10:56:28.132Z,1.57
2023-03-16T10:58:57.753Z,1.53
2023-03-16T11:01:28.095Z,1.60
2023-03-16T11:03:57.501Z,1.40
2023-03-16T11:06:30.487Z,1.80
2023-03-16T11:09:08.486Z,1.77
2023-03-16T11:11:37.004Z,1.30
2023-03-16T11:14:12.848Z,1.50
2023-03-16T11:16:43.293Z,1.50
2023-03-16T11:19:17.348Z,1.50
2023-03-16T11:21:51.632Z,1.50
2023-03-16T11:24:24.118Z,1.20
2023-03-16T11:26:55.953Z,1.33
2023-03-16T11:29:29.084Z,1.23
2023-03-16T11:32:00.300Z,2.13
2023-03-16T11:34:30.581Z,1.20
2023-03-16T11:37:02.020Z,1.40
2023-03-16T11:39:33.536Z,1.47
2023-03-16T11:42:10.061Z,1.20
2023-03-16T11:44:44.668Z,1.40
2023-03-16T11:47:24.868Z,1.10
2023-03-16T11:49:57.416Z,1.40
2023-03-16T11:52:32.490Z,1.20
2023-03-16T11:55:07.853Z,1.30
2023-03-16T11:57:41.760Z,1.20
2023-03-16T12:00:16.153Z,1.27
2023-03-16T12:02:47.489Z,1.30
2023-03-16T12:05:36.503Z,1.27
2023-03-16T12:08:11.007Z,1.50
2023-03-16T12:10:42.196Z,1.20
2023-03-16T12:13:16.515Z,1.43
2023-03-16T12:15:49.095Z,1.37
2023-03-16T12:18:19.219Z,1.27
2023-03-16T12:20:51.989Z,1.73
2023-03-16T12:23:23.349Z,1.40
2023-03-16T12:25:51.939Z,1.33
2023-03-16T12:28:23.716Z,1.43
2023-03-16T12:30:58.126Z,1.33
2023-03-16T12:33:32.946Z,1.67
2023-03-16T12:36:05.050Z,2.03
2023-03-16T12:38:39.673Z,1.77
2023-03-16T12:41:18.039Z,1.50
2023-03-16T12:43:55.402Z,1.50
2023-03-16T12:46:30.372Z,1.43
2023-03-16T12:49:01.132Z,1.60
2023-03-16T12:51:36.338Z,1.40
2023-03-16T12:54:05.606Z,1.53
2023-03-16T12:56:34.788Z,1.30
2023-03-16T12:59:03.948Z,1.40
2023-03-16T13:01:41.443Z,1.50
2023-03-16T13:04:12.405Z,1.27
2023-03-16T13:06:44.324Z,1.53
2023-03-16T13:09:13.362Z,1.23
2023-03-16T13:11:43.732Z,1.60
2023-03-16T13:14:16.938Z,1.20
2023-03-16T13:16:47.846Z,1.60
2023-03-16T13:19:26.032Z,1.30
2023-03-16T13:22:04.046Z,1.37
2023-03-16T13:24:39.876Z,1.27
2023-03-16T13:27:13.665Z,1.57
2023-03-16T13:29:42.059Z,1.17
2023-03-16T13:32:19.296Z,1.33
2023-03-16T13:34:49.745Z,1.20
2023-03-16T13:37:19.707Z,1.50
2023-03-16T13:39:54.500Z,1.40
2023-03-16T13:42:24.366Z,1.53
2023-03-16T13:44:54.379Z,1.17
2023-03-16T13:47:24.403Z,1.20
2023-03-16T13:49:56.015Z,1.33
2023-03-16T13:52:26.743Z,1.20
2023-03-16T13:54:55.263Z,1.20
2023-03-16T13:57:25.001Z,1.17
2023-03-16T13:59:58.988Z,1.20
2023-03-16T14:02:29.186Z,1.10
2023-03-16T14:04:57.417Z,1.30
2023-03-16T14:07:26.282Z,0.93
2023-03-16T14:09:58.506Z,1.37
2023-03-16T14:12:27.349Z,1.33
2023-03-16T14:14:57.331Z,1.20
2023-03-16T14:17:25.907Z,1.00
2023-03-16T14:19:59.566Z,1.20
2023-03-16T14:22:31.492Z,1.13
2023-03-16T14:25:01.328Z,1.13
2023-03-16T14:27:31.002Z,1.13
2023-03-16T14:30:01.634Z,1.27
2023-03-16T14:32:30.695Z,1.17
2023-03-16T14:35:05.490Z,0.90
2023-03-16T14:37:37.175Z,1.27
2023-03-16T14:40:07.379Z,1.30
2023-03-16T14:42:36.652Z,1.10
2023-03-16T14:45:07.618Z,1.60
2023-03-16T14:47:41.093Z,1.07
2023-03-16T14:50:14.694Z,1.20
2023-03-16T14:52:43.908Z,1.20
2023-03-16T14:55:14.002Z,1.27
2023-03-16T14:57:42.708Z,0.90
2023-03-16T15:00:12.561Z,1.17
2023-03-16T15:02:42.047Z,1.30
2023-03-16T15:05:14.178Z,1.10
2023-03-16T15:07:45.366Z,1.30
2023-03-16T15:10:21.950Z,1.20
2023-03-16T15:12:54.108Z,1.10
2023-03-16T15:15:23.627Z,1.00
2023-03-16T15:17:52.827Z,1.30
2023-03-16T15:20:24.403Z,1.00
2023-03-16T15:22:53.391Z,1.07
2023-03-16T15:25:36.178Z,1.00
2023-03-16T15:28:05.745Z,1.13
2023-03-16T15:30:34.097Z,1.20
2023-03-16T15:33:02.332Z,1.07
2023-03-16T15:35:31.931Z,1.20
2023-03-16T15:38:00.732Z,1.00
2023-03-16T15:40:31.299Z,0.90
2023-03-16T15:42:59.738Z,1.00
2023-03-16T15:45:28.608Z,1.00
2023-03-16T15:47:56.870Z,0.83
2023-03-16T15:50:25.716Z,1.17
2023-03-16T15:52:58.043Z,0.80
2023-03-16T15:55:33.090Z,0.93
2023-03-16T15:58:02.314Z,1.03
2023-03-16T16:00:33.067Z,0.90
2023-03-16T16:03:01.977Z,0.97
2023-03-16T16:05:30.932Z,1.00
2023-03-16T16:08:00.820Z,1.20
2023-03-16T16:10:29.619Z,0.90
2023-03-16T16:12:58.925Z,1.10
2023-03-16T16:15:29.357Z,1.10
2023-03-16T16:18:19.795Z,1.00
2023-03-16T16:20:46.503Z,1.03
2023-03-16T16:23:16.103Z,1.00
2023-03-16T16:25:44.961Z,1.10
2023-03-16T16:28:14.706Z,0.90
2023-03-16T16:30:42.865Z,1.40
2023-03-16T16:33:22.478Z,1.43
2023-03-16T16:35:50.850Z,1.20
2023-03-16T16:38:20.410Z,1.20
2023-03-16T16:40:48.655Z,1.57
2023-03-16T16:43:23.636Z,1.30
2023-03-16T16:45:51.867Z,1.10
2023-03-16T16:48:27.137Z,1.10
2023-03-16T16:50:55.388Z,1.10
2023-03-16T16:53:24.976Z,1.10
2023-03-16T16:55:53.411Z,1.00
2023-03-16T16:58:24.598Z,1.33
2023-03-16T17:00:54.994Z,1.07
2023-03-16T17:03:24.101Z,1.17
2023-03-16T17:05:52.796Z,1.10
2023-03-16T17:08:21.675Z,1.27
2023-03-16T17:10:51.743Z,1.17
2023-03-16T17:13:25.704Z,1.20
2023-03-16T17:15:54.492Z,1.10
2023-03-16T17:18:23.075Z,1.27
2023-03-16T17:20:52.270Z,1.30
2023-03-16T17:23:25.915Z,1.20
2023-03-16T17:25:56.180Z,1.07
2023-03-16T17:28:26.113Z,1.30
2023-03-16T17:30:54.334Z,1.40
2023-03-16T17:33:30.927Z,1.30
2023-03-16T17:35:59.142Z,1.30
2023-03-16T17:38:27.358Z,1.20
2023-03-16T17:40:57.013Z,1.50
2023-03-16T17:43:25.649Z,1.50
2023-03-16T17:45:54.075Z,1.37
2023-03-16T17:48:23.839Z,1.20
2023-03-16T17:50:52.516Z,1.50
2023-03-16T17:53:21.714Z,1.60
2023-03-16T17:55:50.086Z,1.40
2023-03-16T17:58:25.763Z,1.50
2023-03-16T18:00:54.609Z,1.67
2023-03-16T18:03:23.696Z,1.53
2023-03-16T18:05:52.017Z,1.70
2023-03-16T18:08:21.739Z,1.50
2023-03-16T18:10:51.507Z,1.40
2023-03-16T18:13:22.475Z,1.47
2023-03-16T18:15:52.716Z,1.37
2023-03-16T18:18:22.129Z,1.77
2023-03-16T18:20:50.919Z,1.80
2023-03-16T18:23:20.938Z,1.90
2023-03-16T18:25:49.989Z,1.90
2023-03-16T18:28:18.463Z,1.63
2023-03-16T18:30:47.761Z,1.43
2023-03-16T18:33:25.288Z,1.70
2023-03-16T18:35:54.669Z,1.80
2023-03-16T18:38:25.790Z,1.40
2023-03-16T18:40:53.946Z,2.00
2023-03-16T18:43:22.131Z,1.80
2023-03-16T18:45:50.554Z,2.10
2023-03-16T18:48:21.701Z,1.90
2023-03-16T18:50:51.468Z,2.10
2023-03-16T18:53:22.271Z,1.70
2023-03-16T18:55:50.596Z,2.00
2023-03-16T18:58:20.910Z,1.77
2023-03-16T19:00:52.661Z,2.13
2023-03-16T19:03:24.408Z,2.03
2023-03-16T19:05:54.230Z,2.07
2023-03-16T19:08:22.593Z,2.10
2023-03-16T19:10:52.770Z,2.20
2023-03-16T19:13:22.398Z,1.70
2023-03-16T19:15:50.986Z,1.73
2023-03-16T19:18:19.580Z,1.90
2023-03-16T19:20:50.235Z,1.60
2023-03-16T19:23:23.009Z,1.90
2023-03-16T19:25:51.878Z,1.53
2023-03-16T19:28:24.254Z,1.50
2023-03-16T19:30:52.638Z,1.80
2023-03-16T19:33:22.116Z,1.80
2023-03-16T19:35:52.259Z,1.50
2023-03-16T19:38:22.409Z,1.60
2023-03-16T19:40:54.666Z,1.50
2023-03-16T19:43:23.497Z,1.70
2023-03-16T19:45:52.223Z,1.93
2023-03-16T19:48:22.531Z,1.70
2023-03-16T19:50:51.368Z,1.77
2023-03-16T19:53:20.661Z,1.73
2023-03-16T19:55:51.836Z,1.60
2023-03-16T19:58:22.321Z,1.73
2023-03-16T20:00:50.593Z,1.70
2023-03-16T20:03:18.828Z,2.10
2023-03-16T20:05:46.992Z,1.90
2023-03-16T20:08:20.048Z,1.67
2023-03-16T20:10:49.911Z,2.00
2023-03-16T20:13:18.335Z,1.73
2023-03-16T20:15:46.596Z,1.80
2023-03-16T20:18:16.166Z,1.80
2023-03-16T20:20:44.893Z,1.60
2023-03-16T20:23:17.486Z,1.70
2023-03-16T20:25:46.244Z,1.80
2023-03-16T20:28:18.896Z,1.70
2023-03-16T20:30:48.967Z,1.87
2023-03-16T20:33:22.175Z,1.90
2023-03-16T20:35:53.417Z,1.90
2023-03-16T20:38:22.100Z,1.87
2023-03-16T20:40:52.174Z,2.23
2023-03-16T20:43:26.950Z,2.20
2023-03-16T20:45:55.949Z,2.10
2023-03-16T20:48:26.021Z,1.80
2023-03-16T20:50:54.430Z,1.90
2023-03-16T20:53:23.459Z,1.60
2023-03-16T20:55:52.116Z,2.30
2023-03-16T20:58:21.965Z,2.20
2023-03-16T21:00:52.912Z,2.10
2023-03-16T21:03:22.302Z,2.30
2023-03-16T21:05:51.053Z,1.70
2023-03-16T21:08:19.438Z,1.77
2023-03-16T21:10:49.249Z,1.93
2023-03-16T21:13:22.204Z,1.87
2023-03-16T21:15:51.914Z,2.03
2023-03-16T21:18:21.455Z,2.30
2023-03-16T21:20:50.573Z,1.73
2023-03-16T21:23:19.781Z,2.30
2023-03-16T21:25:49.240Z,2.27
2023-03-16T21:28:18.102Z,2.43
2023-03-16T21:30:47.499Z,2.03
2023-03-16T21:33:23.394Z,2.50
2023-03-16T21:35:52.283Z,1.93
2023-03-16T21:38:21.491Z,2.10
2023-03-16T21:40:49.829Z,2.07
2023-03-16T21:43:18.053Z,2.00
2023-03-16T21:45:46.486Z,2.43
2023-03-16T21:48:16.731Z,2.57
2023-03-16T21:50:46.491Z,2.37
2023-03-16T21:53:20.531Z,1.97
2023-03-16T21:55:49.336Z,2.40
2023-03-16T21:58:18.195Z,2.20
2023-03-16T22:00:46.843Z,2.57
2023-03-16T22:03:23.504Z,2.50
2023-03-16T22:05:53.336Z,2.53
2023-03-16T22:08:22.572Z,2.67
2023-03-16T22:10:50.830Z,2.40
2023-03-16T22:13:20.333Z,2.43
2023-03-16T22:15:49.418Z,2.40
2023-03-16T22:18:27.324Z,2.10
2023-03-16T22:20:57.416Z,2.30
2023-03-16T22:23:29.710Z,2.40
2023-03-16T22:25:58.417Z,2.17
2023-03-16T22:28:27.099Z,2.60
2023-03-16T22:30:56.349Z,2.30
2023-03-16T22:33:28.113Z,2.60
2023-03-16T22:35:58.415Z,2.87
2023-03-16T22:38:27.117Z,2.73
2023-03-16T22:40:55.660Z,2.30
2023-03-16T22:43:29.957Z,2.30
2023-03-16T22:45:58.155Z,2.77
2023-03-16T22:48:27.309Z,2.50
2023-03-16T22:50:56.138Z,2.63
2023-03-16T22:53:27.092Z,2.60
2023-03-16T22:55:56.955Z,2.77
2023-03-16T22:58:28.686Z,2.50
2023-03-16T23:00:56.905Z,2.77
2023-03-16T23:03:25.713Z,2.30
2023-03-16T23:05:53.927Z,2.90
2023-03-16T23:08:23.830Z,2.50
2023-03-16T23:10:54.346Z,2.60
2023-03-16T23:13:24.248Z,2.60
2023-03-16T23:15:53.466Z,2.53
2023-03-16T23:18:22.463Z,3.10
2023-03-16T23:20:51.216Z,2.50
2023-03-16T23:23:20.253Z,2.77
2023-03-16T23:25:49.316Z,2.60
2023-03-16T23:28:20.717Z,2.60
2023-03-16T23:30:49.202Z,2.80
2023-03-16T23:33:17.601Z,3.10
2023-03-16T23:35:46.668Z,2.80
2023-03-16T23:38:15.201Z,2.80
2023-03-16T23:40:43.489Z,2.60
2023-03-16T23:43:11.650Z,2.80
2023-03-16T23:45:42.374Z,2.77
2023-03-16T23:48:14.170Z,2.80
2023-03-16T23:50:42.793Z,2.97
2023-03-16T23:53:16.077Z,2.50
2023-03-16T23:55:44.924Z,2.87
2023-03-16T23:58:13.163Z,3.10
